Time;durP1;ratioP1;P1;durP2;ratioP2;P2;SDS_P1;SDS_P2;PMS_P1;PMS_P2;Temp;Humidity;BMP_temperature;BMP_pressure;BME280_temperature;BME280_humidity;BME280_pressure;Samples;Min_cycle;Max_cycle;Signal;HPM_P1;HPM_P2
2021/08/18 00:00:44;;;;;;;;;;;13.60;99.90;;;;;;5052675;28;20036;-83
2021/08/18 00:03:11;;;;;;;2.65;1.23;;;13.60;99.90;;;;;;5051308;28;20325;-84
2021/08/18 00:05:38;;;;;;;4.65;1.48;;;13.60;99.90;;;;;;5051252;28;20072;-84
2021/08/18 00:08:06;;;;;;;1.90;1.60;;;13.50;99.90;;;;;;5051429;28;20045;-83
2021/08/18 00:10:32;;;;;;;1.70;1.60;;;13.50;99.90;;;;;;5051750;28;20090;-83
2021/08/18 00:12:58;;;;;;;2.00;1.83;;;13.40;99.90;;;;;;5051275;28;20040;-82
2021/08/18 00:15:25;;;;;;;5.10;1.40;;;13.50;99.90;;;;;;5051731;28;20701;-82
2021/08/18 00:17:54;;;;;;;3.35;1.30;;;13.50;99.90;;;;;;5050731;28;20045;-82
2021/08/18 00:20:20;;;;;;;4.70;2.00;;;13.60;99.90;;;;;;5051149;28;20036;-82
2021/08/18 00:22:46;;;;;;;2.50;1.52;;;13.70;99.90;;;;;;5051855;28;20055;-82
2021/08/18 00:25:12;;;;;;;2.65;1.58;;;13.70;99.90;;;;;;5051737;28;20076;-82
2021/08/18 00:27:38;;;;;;;9.55;2.58;;;13.90;99.90;;;;;;5042190;28;20044;-82
2021/08/18 00:30:05;;;;;;;2.75;0.77;;;13.90;99.90;;;;;;5049670;28;20079;-82
2021/08/18 00:32:31;;;;;;;2.63;1.48;;;14.00;99.90;;;;;;5051462;28;20048;-82
2021/08/18 00:34:57;;;;;;;4.97;1.67;;;14.00;99.90;;;;;;5051959;28;20033;-82
2021/08/18 00:37:23;;;;;;;2.63;1.27;;;14.10;99.90;;;;;;5051329;28;20079;-81
2021/08/18 00:39:48;;;;;;;;;;;14.10;99.90;;;;;;5052596;28;20033;-82
2021/08/18 00:42:17;;;;;;;3.65;1.77;;;14.20;99.90;;;;;;5050003;28;20382;-82
2021/08/18 00:44:43;;;;;;;1.67;1.48;;;14.20;99.90;;;;;;5051572;28;20041;-83
2021/08/18 00:47:09;;;;;;;0.70;0.70;;;14.20;99.90;;;;;;5050737;28;20048;-83
2021/08/18 00:49:35;;;;;;;1.30;1.13;;;14.20;99.90;;;;;;5051417;28;20037;-80
2021/08/18 00:52:02;;;;;;;4.03;1.42;;;14.30;99.90;;;;;;5051817;28;20055;-82
2021/08/18 00:54:28;;;;;;;3.53;2.22;;;14.30;99.90;;;;;;5050143;28;20037;-82
2021/08/18 00:56:54;;;;;;;2.50;1.65;;;14.30;99.90;;;;;;5049746;28;21071;-82
2021/08/18 00:59:21;;;;;;;2.08;1.77;;;14.40;99.90;;;;;;5051104;28;20036;-82
2021/08/18 01:01:47;;;;;;;1.92;1.45;;;14.40;99.90;;;;;;5051096;28;20029;-82
2021/08/18 01:04:13;;;;;;;0.68;0.68;;;14.30;99.90;;;;;;5050791;28;20036;-82
2021/08/18 01:06:42;;;;;;;3.50;1.90;;;14.40;99.90;;;;;;5051361;28;20037;-82
2021/08/18 01:09:13;;;;;;;5.07;1.65;;;14.40;99.90;;;;;;5049809;28;20049;-83
2021/08/18 01:11:40;;;;;;;3.08;2.15;;;14.40;99.90;;;;;;5050810;28;20052;-83
2021/08/18 01:14:07;;;;;;;2.10;1.45;;;14.40;99.90;;;;;;5050277;28;20095;-84
2021/08/18 01:16:39;;;;;;;3.28;2.22;;;14.30;99.90;;;;;;5055132;28;20068;-84
2021/08/18 01:19:06;;;;;;;5.13;2.10;;;14.30;99.90;;;;;;5055409;28;20121;-83
2021/08/18 01:21:38;;;;;;;2.40;1.90;;;14.30;99.90;;;;;;5057176;28;20041;-84
2021/08/18 01:24:05;;;;;;;1.65;1.17;;;14.20;99.90;;;;;;5055326;28;20033;-84
2021/08/18 01:26:32;;;;;;;1.95;1.58;;;14.10;99.90;;;;;;5054808;28;20478;-83
2021/08/18 01:28:59;;;;;;;7.43;2.10;;;14.00;99.90;;;;;;5053104;28;20060;-84
2021/08/18 01:31:24;;;;;;;3.35;1.83;;;13.90;99.90;;;;;;5054247;28;20052;-84
2021/08/18 01:33:50;;;;;;;4.93;1.98;;;13.90;99.90;;;;;;5054365;28;20037;-84
2021/08/18 01:36:18;;;;;;;1.25;1.15;;;13.90;99.90;;;;;;5058046;28;20120;-84
2021/08/18 01:38:44;;;;;;;3.65;2.33;;;13.90;99.90;;;;;;5055208;28;20037;-84
2021/08/18 01:41:10;;;;;;;2.15;1.73;;;13.90;99.90;;;;;;5053183;28;20498;-83
2021/08/18 01:43:35;;;;;;;;;;;13.90;99.90;;;;;;5053916;28;20064;-83
2021/08/18 01:46:01;;;;;;;2.03;1.45;;;13.80;99.90;;;;;;5055123;28;20326;-84
2021/08/18 01:48:32;;;;;;;10.20;1.95;;;13.80;99.90;;;;;;5053578;28;20041;-82
2021/08/18 01:51:00;;;;;;;4.68;1.42;;;13.80;99.90;;;;;;5055086;28;20112;-82
2021/08/18 01:53:29;;;;;;;3.88;2.33;;;13.90;99.90;;;;;;5053261;28;20041;-82
2021/08/18 01:55:59;;;;;;;1.77;1.48;;;13.90;99.90;;;;;;5055742;28;20029;-83
2021/08/18 01:58:26;;;;;;;5.13;1.33;;;14.00;99.90;;;;;;5058051;28;20483;-84
2021/08/18 02:00:51;;;;;;;;;;;14.00;99.90;;;;;;5057999;28;20040;-83
2021/08/18 02:03:17;;;;;;;3.47;1.25;;;14.00;99.90;;;;;;5053320;28;19925;-83
2021/08/18 02:05:43;;;;;;;;;;;14.10;99.90;;;;;;5054697;28;20044;-83
2021/08/18 02:08:09;;;;;;;2.83;1.92;;;14.10;99.90;;;;;;5053766;28;19917;-83
2021/08/18 02:10:35;;;;;;;2.97;1.42;;;14.10;99.90;;;;;;5054177;28;20437;-82
2021/08/18 02:13:01;;;;;;;1.67;1.23;;;14.10;99.90;;;;;;5054081;28;20051;-84
2021/08/18 02:15:30;;;;;;;4.63;1.95;;;14.20;99.90;;;;;;5052686;28;20424;-82
2021/08/18 02:17:58;;;;;;;2.90;1.35;;;14.20;99.90;;;;;;5052637;28;20045;-83
2021/08/18 02:20:27;;;;;;;1.67;1.50;;;14.30;99.90;;;;;;5053257;28;20072;-82
2021/08/18 02:22:54;;;;;;;3.20;1.35;;;14.30;99.90;;;;;;5053723;28;20364;-83
2021/08/18 02:25:20;;;;;;;4.60;1.75;;;14.40;99.90;;;;;;5053943;28;20602;-83
2021/08/18 02:27:46;;;;;;;;;;;14.40;99.90;;;;;;5053924;28;20556;-83
2021/08/18 02:30:17;;;;;;;2.87;1.83;;;14.40;99.90;;;;;;5052006;28;19921;-84
2021/08/18 02:32:43;;;;;;;7.88;2.25;;;14.40;99.90;;;;;;5053105;28;20283;-85
2021/08/18 02:35:10;;;;;;;1.40;1.30;;;14.50;99.90;;;;;;5053837;28;20063;-84
2021/08/18 02:37:37;;;;;;;2.40;1.38;;;14.50;99.90;;;;;;5053059;28;20123;-83
2021/08/18 02:40:04;;;;;;;2.63;1.17;;;14.50;99.90;;;;;;5054444;28;20031;-83
2021/08/18 02:42:30;;;;;;;3.50;2.15;;;14.60;99.90;;;;;;5052759;28;20064;-83
2021/08/18 02:44:56;;;;;;;1.92;1.50;;;14.60;99.90;;;;;;5054815;28;20064;-84
2021/08/18 02:47:22;;;;;;;2.50;1.63;;;14.60;99.90;;;;;;5052245;28;20083;-84
2021/08/18 02:49:48;;;;;;;;;;;14.60;99.90;;;;;;5053914;28;20144;-84
2021/08/18 02:52:14;;;;;;;2.17;1.20;;;14.60;99.90;;;;;;5052516;28;19931;-85
2021/08/18 02:54:40;;;;;;;;;;;14.60;99.90;;;;;;5052654;28;20040;-85
2021/08/18 02:57:06;;;;;;;1.38;1.25;;;14.60;99.90;;;;;;5049522;28;19925;-83
2021/08/18 02:59:31;;;;;;;2.28;1.52;;;14.50;99.90;;;;;;5053378;28;20047;-86
2021/08/18 03:01:57;;;;;;;1.30;1.17;;;14.50;99.90;;;;;;5045564;28;20073;-83
2021/08/18 03:04:23;;;;;;;;;;;14.40;99.90;;;;;;5045528;28;20065;-83
2021/08/18 03:06:49;;;;;;;0.95;0.88;;;14.40;99.90;;;;;;5053293;28;19940;-83
2021/08/18 03:09:15;;;;;;;;;;;14.30;99.90;;;;;;5052992;28;20044;-83
2021/08/18 03:11:41;;;;;;;2.45;1.10;;;14.30;99.90;;;;;;5052756;28;20012;-83
2021/08/18 03:14:07;;;;;;;1.50;1.13;;;14.30;99.90;;;;;;5052906;28;20061;-82
2021/08/18 03:16:33;;;;;;;1.98;1.33;;;14.20;99.90;;;;;;5052612;28;20045;-82
2021/08/18 03:18:59;;;;;;;;;;;14.30;99.90;;;;;;5052208;28;20462;-83
2021/08/18 03:21:24;;;;;;;2.33;0.98;;;14.30;99.90;;;;;;5052723;28;20011;-83
2021/08/18 03:23:50;;;;;;;1.85;1.05;;;14.20;99.90;;;;;;5053133;28;20069;-84
2021/08/18 03:26:16;;;;;;;1.85;1.65;;;14.30;99.90;;;;;;5048314;28;20033;-84
2021/08/18 03:28:42;;;;;;;1.80;1.48;;;14.20;99.90;;;;;;5044126;28;20045;-83
2021/08/18 03:31:07;;;;;;;;;;;14.20;99.90;;;;;;5053027;28;20041;-85
2021/08/18 03:33:33;;;;;;;4.88;1.90;;;14.20;99.90;;;;;;5051729;28;19948;-84
2021/08/18 03:35:59;;;;;;;2.30;1.58;;;14.20;99.90;;;;;;5051570;28;20475;-83
2021/08/18 03:38:25;;;;;;;2.75;2.13;;;14.20;99.90;;;;;;5052567;28;20044;-84
2021/08/18 03:40:53;;;;;;;4.65;1.73;;;14.20;99.90;;;;;;5051604;28;20501;-83
2021/08/18 03:43:21;;;;;;;4.20;1.77;;;14.20;99.90;;;;;;5051713;28;20068;-83
2021/08/18 03:45:47;;;;;;;3.08;2.03;;;14.30;99.90;;;;;;5051503;28;20033;-82
2021/08/18 03:48:16;;;;;;;1.60;1.50;;;14.30;99.90;;;;;;5051357;28;20426;-83
2021/08/18 03:50:42;;;;;;;1.05;1.00;;;14.40;99.90;;;;;;5052253;28;20044;-84
2021/08/18 03:53:08;;;;;;;4.43;1.95;;;14.40;99.90;;;;;;5052720;28;20041;-84
2021/08/18 03:55:33;;;;;;;1.63;1.23;;;14.40;99.90;;;;;;5052046;28;20041;-84
2021/08/18 03:57:59;;;;;;;2.10;1.85;;;14.40;99.90;;;;;;5052798;28;20048;-83
2021/08/18 04:00:25;;;;;;;4.57;1.95;;;14.40;99.90;;;;;;5051735;28;20040;-82
2021/08/18 04:02:51;;;;;;;1.85;1.08;;;14.40;99.90;;;;;;5050893;28;20036;-85
2021/08/18 04:05:17;;;;;;;3.08;1.45;;;14.50;99.90;;;;;;5050386;28;20068;-82
2021/08/18 04:07:43;;;;;;;;;;;14.50;99.90;;;;;;5051411;28;20501;-83
2021/08/18 04:10:10;;;;;;;5.15;2.10;;;14.50;99.90;;;;;;5052655;28;19916;-83
2021/08/18 04:12:51;;;;;;;3.90;2.38;;;14.50;99.90;;;;;;5052401;28;20117;-84
2021/08/18 04:15:16;;;;;;;3.88;1.90;;;14.60;99.90;;;;;;5037665;28;20037;-84
2021/08/18 04:17:42;;;;;;;2.17;1.45;;;14.60;99.90;;;;;;5057451;28;20566;-84
2021/08/18 04:20:08;;;;;;;13.07;2.17;;;14.60;99.90;;;;;;5052697;28;20466;-85
2021/08/18 04:22:34;;;;;;;3.30;1.90;;;14.60;99.90;;;;;;5052346;28;20123;-83
2021/08/18 04:25:00;;;;;;;3.05;1.92;;;14.60;99.90;;;;;;5051870;28;20087;-84
2021/08/18 04:27:26;;;;;;;2.05;1.67;;;14.60;99.90;;;;;;5050141;28;20502;-84
2021/08/18 04:29:52;;;;;;;2.92;2.63;;;14.60;99.90;;;;;;5048569;28;20040;-83
2021/08/18 04:32:18;;;;;;;3.97;1.27;;;14.60;99.90;;;;;;5051758;28;20060;-85
2021/08/18 04:34:43;;;;;;;2.88;1.38;;;14.60;99.90;;;;;;5051607;28;20049;-85
2021/08/18 04:37:10;;;;;;;1.40;1.15;;;14.60;99.90;;;;;;5049808;28;20045;-84
2021/08/18 04:39:36;;;;;;;;;;;14.70;99.90;;;;;;5052202;28;20056;-84
2021/08/18 04:42:02;;;;;;;3.30;1.70;;;14.70;99.90;;;;;;5050594;28;20369;-84
2021/08/18 04:44:28;;;;;;;3.35;1.63;;;14.70;99.90;;;;;;5051300;28;20391;-85
2021/08/18 04:46:54;;;;;;;1.50;1.17;;;14.80;99.90;;;;;;5014552;28;20040;-84
2021/08/18 04:49:20;;;;;;;6.35;1.88;;;14.90;99.90;;;;;;5052074;28;20068;-82
2021/08/18 04:51:46;;;;;;;3.10;1.83;;;14.80;99.90;;;;;;5054355;28;20467;-83
2021/08/18 04:54:11;;;;;;;;;;;14.90;99.90;;;;;;5055074;28;20060;-82
2021/08/18 04:56:37;;;;;;;4.85;1.95;;;14.90;99.90;;;;;;5050576;28;19920;-82
2021/08/18 04:59:03;;;;;;;2.20;1.48;;;15.00;99.90;;;;;;5056915;28;20037;-83
2021/08/18 05:01:28;;;;;;;;;;;15.00;99.90;;;;;;5054196;28;20037;-82
2021/08/18 05:03:54;;;;;;;3.00;2.00;;;15.00;99.90;;;;;;5053966;28;19916;-83
2021/08/18 05:06:20;;;;;;;5.95;1.50;;;15.00;99.90;;;;;;5055669;28;20156;-83
2021/08/18 05:08:46;;;;;;;1.42;0.82;;;15.00;99.90;;;;;;5055903;28;20127;-84
2021/08/18 05:11:12;;;;;;;3.40;1.73;;;15.10;99.90;;;;;;5051852;28;20437;-83
2021/08/18 05:13:38;;;;;;;2.42;1.90;;;15.10;99.90;;;;;;5055619;28;20036;-84
2021/08/18 05:16:04;;;;;;;4.10;1.15;;;15.10;99.90;;;;;;5054781;28;20203;-83
2021/08/18 05:18:33;;;;;;;1.92;1.35;;;15.20;99.90;;;;;;5053511;28;20040;-80
2021/08/18 05:21:01;;;;;;;1.20;1.10;;;15.20;99.90;;;;;;5054284;28;20037;-84
2021/08/18 05:23:28;;;;;;;3.03;1.42;;;15.20;99.90;;;;;;5052536;28;20036;-85
2021/08/18 05:25:54;;;;;;;5.32;1.30;;;15.20;99.90;;;;;;5048626;28;20127;-80
2021/08/18 05:28:20;;;;;;;1.85;1.17;;;15.30;99.90;;;;;;5054654;28;20048;-84
2021/08/18 05:30:56;;;;;;;1.75;1.63;;;15.30;99.90;;;;;;5044740;28;20037;-83
2021/08/18 05:33:40;;;;;;;1.20;0.90;;;15.40;99.90;;;;;;5052634;28;20040;-86
2021/08/18 05:36:07;;;;;;;1.65;1.10;;;15.30;99.90;;;;;;5037630;28;20049;-80
2021/08/18 05:38:33;;;;;;;2.85;1.92;;;15.40;99.90;;;;;;5057776;28;20041;-82
2021/08/18 05:41:07;;;;;;;0.77;0.77;;;15.40;99.90;;;;;;5068765;28;20029;-84
2021/08/18 05:43:33;;;;;;;1.63;1.08;;;15.40;99.90;;;;;;5046310;28;20133;-84
2021/08/18 05:46:00;;;;;;;2.58;1.40;;;15.40;99.90;;;;;;5035297;28;20379;-81
2021/08/18 05:48:26;;;;;;;2.33;1.52;;;15.50;99.90;;;;;;5014246;28;20483;-82
2021/08/18 05:50:53;;;;;;;2.00;0.88;;;15.50;99.90;;;;;;5021381;28;20072;-81
2021/08/18 05:53:19;;;;;;;1.77;1.25;;;15.60;99.90;;;;;;5050650;28;20106;-80
2021/08/18 05:55:47;;;;;;;1.38;1.05;;;15.60;99.90;;;;;;5051219;28;20048;-83
2021/08/18 05:58:13;;;;;;;2.53;1.65;;;15.60;99.90;;;;;;5050679;28;20056;-82
2021/08/18 06:00:39;;;;;;;;;;;15.60;99.90;;;;;;5036423;28;20025;-78
2021/08/18 06:03:04;;;;;;;4.00;1.33;;;15.70;99.90;;;;;;5050645;28;19924;-81
2021/08/18 06:05:30;;;;;;;1.25;0.80;;;15.60;99.90;;;;;;5032267;28;20124;-80
2021/08/18 06:07:56;;;;;;;;;;;15.70;99.90;;;;;;5045761;28;20064;-82
2021/08/18 06:10:22;;;;;;;1.77;1.13;;;15.70;99.90;;;;;;5052547;28;20325;-83
2021/08/18 06:12:48;;;;;;;;;;;15.70;99.90;;;;;;5052516;28;20036;-82
2021/08/18 06:15:15;;;;;;;1.30;1.03;;;15.70;99.90;;;;;;5055393;28;19929;-81
2021/08/18 06:17:40;;;;;;;1.48;1.15;;;15.70;99.90;;;;;;5051275;28;20110;-80
2021/08/18 06:20:07;;;;;;;4.35;1.63;;;15.80;99.90;;;;;;5048972;28;20077;-80
2021/08/18 06:22:33;;;;;;;2.05;1.25;;;15.80;99.90;;;;;;5051296;28;20036;-82
2021/08/18 06:25:02;;;;;;;1.77;1.20;;;15.90;99.90;;;;;;5051729;28;20036;-79
2021/08/18 06:27:30;;;;;;;2.03;1.00;;;15.90;99.90;;;;;;5050839;28;20037;-83
2021/08/18 06:29:56;;;;;;;4.32;1.27;;;15.90;99.90;;;;;;5045897;28;20033;-79
2021/08/18 06:32:22;;;;;;;2.00;1.30;;;16.00;99.90;;;;;;5049903;28;20040;-81
2021/08/18 06:34:49;;;;;;;1.30;1.00;;;16.00;99.90;;;;;;5052449;28;20051;-82
2021/08/18 06:37:15;;;;;;;1.33;1.02;;;16.00;99.90;;;;;;5053953;28;20095;-81
2021/08/18 06:39:41;;;;;;;2.08;1.20;;;16.00;99.90;;;;;;5054619;28;20045;-85
2021/08/18 06:42:07;;;;;;;;;;;16.00;99.90;;;;;;5053495;28;20037;-84
2021/08/18 06:44:33;;;;;;;1.55;1.30;;;16.00;99.90;;;;;;5053873;28;19925;-80
2021/08/18 06:46:58;;;;;;;;;;;16.00;99.90;;;;;;5050064;28;20183;-82
2021/08/18 06:49:24;;;;;;;2.55;1.48;;;16.00;99.90;;;;;;5058669;28;19904;-80
2021/08/18 06:51:50;;;;;;;;;;;16.10;99.90;;;;;;5058850;28;20045;-79
2021/08/18 06:54:16;;;;;;;1.25;1.05;;;16.10;99.90;;;;;;5046779;28;19931;-83
2021/08/18 06:56:41;;;;;;;2.67;1.55;;;16.10;99.90;;;;;;5032811;28;20073;-84
2021/08/18 06:59:07;;;;;;;;;;;16.10;99.90;;;;;;5049311;28;20533;-85
2021/08/18 07:01:33;;;;;;;2.35;1.23;;;16.10;99.90;;;;;;5046814;28;20024;-81
2021/08/18 07:03:59;;;;;;;1.70;1.00;;;16.20;99.90;;;;;;5049238;28;20029;-79
2021/08/18 07:06:24;;;;;;;2.05;1.42;;;16.30;99.90;;;;;;5048699;28;20526;-81
2021/08/18 07:08:50;;;;;;;3.03;1.67;;;16.40;99.90;;;;;;5012441;28;20037;-80
2021/08/18 07:11:16;;;;;;;;;;;16.50;99.90;;;;;;5049524;28;20044;-79
2021/08/18 07:13:42;;;;;;;1.98;1.17;;;16.50;99.90;;;;;;5047105;28;19947;-85
2021/08/18 07:16:08;;;;;;;1.70;1.45;;;16.60;99.90;;;;;;5031493;28;20088;-83
2021/08/18 07:18:34;;;;;;;1.05;0.93;;;16.60;99.90;;;;;;5047070;28;20057;-84
2021/08/18 07:21:00;;;;;;;;;;;16.60;99.90;;;;;;5048480;28;20455;-87
2021/08/18 07:23:26;;;;;;;2.95;0.95;;;16.70;99.90;;;;;;5032855;28;19935;-83
2021/08/18 07:25:51;;;;;;;;;;;16.80;99.90;;;;;;5031260;28;20087;-84
2021/08/18 07:28:17;;;;;;;1.40;1.08;;;16.90;99.90;;;;;;5048590;28;20717;-82
2021/08/18 07:30:43;;;;;;;;;;;17.00;99.90;;;;;;5051743;28;20029;-86
2021/08/18 07:33:09;;;;;;;1.10;0.90;;;17.00;99.90;;;;;;5029288;28;20358;-83
2021/08/18 07:35:35;;;;;;;2.17;1.00;;;17.10;99.90;;;;;;5051745;28;20063;-83
2021/08/18 07:38:01;;;;;;;;;;;17.20;99.90;;;;;;5030950;28;20091;-84
2021/08/18 07:40:27;;;;;;;0.90;0.80;;;17.30;99.90;;;;;;5049523;28;19917;-82
2021/08/18 07:42:55;;;;;;;;;;;17.30;99.90;;;;;;5050265;28;20087;-84
2021/08/18 07:45:21;;;;;;;1.77;1.25;;;17.30;99.90;;;;;;5030605;28;19960;-85
2021/08/18 07:47:47;;;;;;;2.45;1.45;;;17.40;99.90;;;;;;5048899;28;20486;-81
2021/08/18 07:50:12;;;;;;;;;;;17.40;99.90;;;;;;5051986;28;20037;-87
2021/08/18 07:52:38;;;;;;;5.05;1.48;;;17.30;99.90;;;;;;5050530;28;19921;-84
2021/08/18 07:55:05;;;;;;;;;;;17.30;99.90;;;;;;5046479;28;20573;-83
2021/08/18 07:57:34;;;;;;;0.93;0.85;;;17.20;99.90;;;;;;5040281;28;20621;-85
2021/08/18 08:00:04;;;;;;;3.08;1.15;;;17.20;99.90;;;;;;5027062;28;20039;-83
2021/08/18 08:02:30;;;;;;;1.25;0.98;;;17.20;99.90;;;;;;5049412;28;20044;-88
2021/08/18 08:04:56;;;;;;;2.75;1.50;;;17.20;99.90;;;;;;5048388;28;20033;-85
2021/08/18 08:07:21;;;;;;;;;;;17.10;99.90;;;;;;5043662;28;20107;-84
2021/08/18 08:09:52;;;;;;;1.88;1.00;;;17.10;99.90;;;;;;5046509;28;19933;-83
2021/08/18 08:12:17;;;;;;;2.40;1.35;;;17.20;99.90;;;;;;5057158;28;20041;-82
2021/08/18 08:14:43;;;;;;;1.08;0.85;;;17.30;99.90;;;;;;5041970;28;20037;-83
2021/08/18 08:17:09;;;;;;;2.47;1.25;;;17.30;99.90;;;;;;5013303;28;20049;-87
2021/08/18 08:19:36;;;;;;;1.98;1.35;;;17.40;99.90;;;;;;5041176;28;20036;-87
2021/08/18 08:22:03;;;;;;;1.38;1.10;;;17.50;99.90;;;;;;5032338;28;20065;-84
2021/08/18 08:24:29;;;;;;;1.45;0.93;;;17.70;99.90;;;;;;5013209;28;20044;-85
2021/08/18 08:26:56;;;;;;;1.27;0.93;;;17.80;99.90;;;;;;5052421;28;20036;-88
2021/08/18 08:29:22;;;;;;;2.25;1.30;;;17.90;99.90;;;;;;5050651;28;20151;-85
2021/08/18 08:31:48;;;;;;;;;;;18.00;99.90;;;;;;5032198;28;20044;-81
2021/08/18 08:34:16;;;;;;;1.70;1.00;;;18.10;99.90;;;;;;5045611;28;19917;-82
2021/08/18 08:36:42;;;;;;;5.28;1.20;;;18.10;99.90;;;;;;5034117;28;20071;-82
2021/08/18 08:39:09;;;;;;;2.80;1.27;;;18.10;99.90;;;;;;5047182;28;20037;-85
2021/08/18 08:41:35;;;;;;;0.82;0.80;;;18.00;99.90;;;;;;5046555;28;20077;-85
2021/08/18 08:44:02;;;;;;;3.80;1.58;;;17.90;99.90;;;;;;5041381;28;20030;-82
2021/08/18 08:46:28;;;;;;;1.60;0.90;;;17.80;99.90;;;;;;5047006;28;20482;-84
2021/08/18 08:48:54;;;;;;;;;;;17.70;99.90;;;;;;5062757;28;20045;-83
2021/08/18 08:51:23;;;;;;;2.28;1.35;;;17.70;99.90;;;;;;5059096;28;19920;-81
2021/08/18 08:53:49;;;;;;;;;;;17.70;99.90;;;;;;5051040;28;20124;-82
2021/08/18 08:56:15;;;;;;;4.13;1.42;;;17.70;99.90;;;;;;5047006;28;19967;-86
2021/08/18 08:58:40;;;;;;;;;;;17.90;99.90;;;;;;5055256;28;20068;-84
2021/08/18 09:01:06;;;;;;;1.42;1.25;;;18.20;99.90;;;;;;5032381;28;20031;-84
2021/08/18 09:03:35;;;;;;;;;;;18.40;99.90;;;;;;5031666;28;20056;-86
2021/08/18 09:06:06;;;;;;;1.52;0.98;;;18.70;99.90;;;;;;5049408;28;19928;-84
2021/08/18 09:08:34;;;;;;;2.00;1.30;;;18.90;99.90;;;;;;5046837;28;20045;-84
2021/08/18 09:11:13;;;;;;;2.05;1.30;;;19.10;99.90;;;;;;5045009;28;20463;-84
2021/08/18 09:13:49;;;;;;;2.63;1.25;;;19.20;99.90;;;;;;5045025;28;20033;-84
2021/08/18 09:16:17;;;;;;;2.55;1.42;;;19.20;99.90;;;;;;5048080;28;20053;-85
2021/08/18 09:18:46;;;;;;;2.30;1.02;;;19.10;99.90;;;;;;5046851;28;20132;-82
2021/08/18 09:21:30;;;;;;;1.45;1.05;;;19.10;99.90;;;;;;5043065;28;20064;-80
2021/08/18 09:24:11;;;;;;;1.95;1.40;;;19.10;99.90;;;;;;5048644;28;20036;-82
2021/08/18 09:26:56;;;;;;;3.83;1.13;;;19.00;99.90;;;;;;5063947;28;20081;-81
2021/08/18 09:29:37;;;;;;;2.45;1.33;;;18.90;99.90;;;;;;5050371;28;20422;-80
2021/08/18 09:32:37;;;;;;;1.85;1.63;;;19.10;99.90;;;;;;5043697;28;20041;-85
2021/08/18 09:35:12;;;;;;;1.90;1.63;;;19.20;99.90;;;;;;5043483;28;20083;-83
2021/08/18 09:37:40;;;;;;;2.13;1.45;;;19.40;99.90;;;;;;5042359;28;20044;-78
2021/08/18 09:40:36;;;;;;;2.75;1.85;;;19.50;99.90;;;;;;5028034;28;20099;-81
2021/08/18 09:43:10;;;;;;;1.90;1.25;;;19.50;99.90;;;;;;5042951;28;20040;-80
2021/08/18 09:45:39;;;;;;;1.63;1.33;;;19.50;99.90;;;;;;5042860;28;20043;-78
2021/08/18 09:48:18;;;;;;;2.00;1.50;;;19.50;99.90;;;;;;5056864;28;20048;-79
2021/08/18 09:50:56;;;;;;;1.55;1.25;;;19.40;99.90;;;;;;5040793;28;20494;-79
2021/08/18 09:53:29;;;;;;;6.55;2.13;;;19.40;99.90;;;;;;5043417;28;20099;-83
2021/08/18 09:55:56;;;;;;;1.92;1.55;;;19.30;99.90;;;;;;5043916;28;20078;-79
2021/08/18 09:58:37;;;;;;;1.52;1.35;;;19.40;99.90;;;;;;5043816;28;20129;-80
2021/08/18 10:01:08;;;;;;;4.35;2.45;;;19.30;99.90;;;;;;5040811;28;20036;-79
2021/08/18 10:03:34;;;;;;;2.83;1.65;;;19.30;99.90;;;;;;5040738;28;20112;-79
2021/08/18 10:06:01;;;;;;;2.45;1.45;;;19.20;99.90;;;;;;5026444;28;20367;-87
2021/08/18 10:08:28;;;;;;;3.25;1.38;;;19.20;99.90;;;;;;5042966;28;20056;-82
2021/08/18 10:10:54;;;;;;;4.68;1.92;;;19.20;99.90;;;;;;5043204;28;20033;-80
2021/08/18 10:13:22;;;;;;;6.03;3.22;;;19.20;99.90;;;;;;5044054;28;20041;-79
2021/08/18 10:15:49;;;;;;;4.18;2.45;;;19.20;99.90;;;;;;5042133;28;20804;-82
2021/08/18 10:18:28;;;;;;;3.88;2.30;;;19.20;99.90;;;;;;5038673;28;20069;-80
2021/08/18 10:20:59;;;;;;;1.80;1.48;;;19.20;99.90;;;;;;5043098;28;20039;-79
2021/08/18 10:24:06;;;;;;;2.85;2.08;;;19.20;99.90;;;;;;5032939;28;20128;-82
2021/08/18 10:26:39;;;;;;;4.80;2.47;;;19.10;99.90;;;;;;5042581;28;20121;-79
2021/08/18 10:29:09;;;;;;;7.55;2.22;;;19.20;99.90;;;;;;5041409;28;20334;-77
2021/08/18 10:31:41;;;;;;;4.97;2.30;;;19.40;99.90;;;;;;5041719;28;20040;-80
2021/08/18 10:34:08;;;;;;;3.65;2.33;;;19.60;99.90;;;;;;5039137;28;20040;-78
2021/08/18 10:37:05;;;;;;;7.40;2.40;;;19.90;99.90;;;;;;5037014;28;20601;-80
2021/08/18 10:39:39;;;;;;;3.87;2.37;;;20.20;99.90;;;;;;5031255;28;20053;-82
2021/08/18 10:42:25;;;;;;;4.72;3.15;;;20.50;99.90;;;;;;5037595;28;20103;-81
2021/08/18 10:44:52;;;;;;;6.05;3.10;;;20.50;99.90;;;;;;5043691;28;20041;-79
2021/08/18 10:47:26;;;;;;;6.32;3.03;;;20.50;99.90;;;;;;5046667;28;20056;-80
2021/08/18 10:50:00;;;;;;;3.20;2.35;;;20.50;99.90;;;;;;5042393;28;20030;-77
2021/08/18 10:52:29;;;;;;;5.32;2.85;;;20.60;99.90;;;;;;5042844;28;20037;-80
2021/08/18 10:55:05;;;;;;;4.03;2.97;;;20.60;99.90;;;;;;5040754;28;20070;-80
2021/08/18 10:57:58;;;;;;;4.95;2.53;;;20.60;99.90;;;;;;5044072;28;20101;-83
2021/08/18 11:00:23;;;;;;;5.80;2.53;;;20.70;99.90;;;;;;5044027;28;20103;-82
2021/08/18 11:02:55;;;;;;;7.68;3.03;;;20.80;99.90;;;;;;5043300;28;20490;-83
2021/08/18 11:05:48;;;;;;;3.03;2.35;;;20.70;99.90;;;;;;5044667;28;20049;-81
2021/08/18 11:08:24;;;;;;;5.18;3.05;;;20.70;99.90;;;;;;5017910;28;20051;-80
2021/08/18 11:10:50;;;;;;;4.63;2.58;;;20.80;99.90;;;;;;5049031;28;20123;-80
2021/08/18 11:13:18;;;;;;;6.47;2.28;;;20.70;99.90;;;;;;5050548;28;20120;-84
2021/08/18 11:15:50;;;;;;;3.13;1.88;;;20.60;99.90;;;;;;5010489;28;20048;-87
2021/08/18 11:18:18;;;;;;;3.60;2.33;;;20.50;99.90;;;;;;5042043;28;20044;-81
2021/08/18 11:20:48;;;;;;;3.13;2.30;;;20.50;99.90;;;;;;5040288;28;20030;-83
2021/08/18 11:23:23;;;;;;;3.58;2.47;;;20.50;99.90;;;;;;5040295;28;20041;-80
2021/08/18 11:25:49;;;;;;;2.45;1.70;;;20.60;99.90;;;;;;5031560;28;20458;-84
2021/08/18 11:28:22;;;;;;;5.38;2.80;;;20.60;99.90;;;;;;5042161;28;20120;-84
2021/08/18 11:30:56;;;;;;;3.70;2.10;;;20.40;99.90;;;;;;5041704;28;20041;-85
2021/08/18 11:33:26;;;;;;;6.03;2.78;;;20.10;99.90;;;;;;5026793;28;20055;-80
2021/08/18 11:35:52;;;;;;;4.97;3.03;;;19.90;99.90;;;;;;5032455;28;20037;-84
2021/08/18 11:38:19;;;;;;;2.83;1.67;;;19.70;99.90;;;;;;5028669;28;20037;-86
2021/08/18 11:40:48;;;;;;;3.78;2.10;;;19.60;99.90;;;;;;5040807;28;20037;-83
2021/08/18 11:43:14;;;;;;;5.88;2.63;;;19.70;99.90;;;;;;5026470;28;20043;-83
2021/08/18 11:45:40;;;;;;;3.60;2.33;;;19.70;99.90;;;;;;5043644;28;20045;-81
2021/08/18 11:48:11;;;;;;;2.67;1.83;;;19.70;99.90;;;;;;5041851;28;20052;-82
2021/08/18 11:50:38;;;;;;;6.43;2.05;;;19.60;99.90;;;;;;5043579;28;20037;-79
2021/08/18 11:53:07;;;;;;;1.95;1.52;;;19.70;99.90;;;;;;5047136;28;20037;-83
2021/08/18 11:55:34;;;;;;;3.25;2.17;;;19.80;99.90;;;;;;5054923;28;20041;-81
2021/08/18 11:58:04;;;;;;;8.35;2.30;;;19.90;99.90;;;;;;5057124;28;20037;-79
2021/08/18 12:00:31;;;;;;;3.13;2.10;;;20.10;99.90;;;;;;5057073;28;20041;-82
2021/08/18 12:02:59;;;;;;;4.00;2.10;;;20.30;99.90;;;;;;5027377;28;20033;-82
2021/08/18 12:05:33;;;;;;;3.47;1.70;;;20.50;99.90;;;;;;5042612;28;20040;-82
2021/08/18 12:08:12;;;;;;;2.92;1.73;;;20.70;99.90;;;;;;5043057;28;20049;-80
2021/08/18 12:10:40;;;;;;;3.28;2.05;;;20.80;99.90;;;;;;5042012;28;20041;-84
2021/08/18 12:13:08;;;;;;;2.75;1.63;;;20.70;99.90;;;;;;5041107;28;20033;-83
2021/08/18 12:15:42;;;;;;;4.22;2.42;;;20.50;99.90;;;;;;5042356;28;20037;-81
2021/08/18 12:18:27;;;;;;;4.05;1.70;;;20.30;99.90;;;;;;5041145;28;20042;-81
2021/08/18 12:20:53;;;;;;;3.63;1.90;;;20.20;99.90;;;;;;5027879;28;20108;-83
2021/08/18 12:23:25;;;;;;;2.38;1.70;;;20.10;99.90;;;;;;5044182;28;20051;-82
2021/08/18 12:25:52;;;;;;;3.30;2.25;;;20.10;99.90;;;;;;5040527;28;20451;-83
2021/08/18 12:28:20;;;;;;;2.15;1.85;;;20.00;99.90;;;;;;5047583;28;20044;-82
2021/08/18 12:31:00;;;;;;;2.80;2.17;;;19.80;99.90;;;;;;5028665;28;20041;-82
2021/08/18 12:33:27;;;;;;;2.75;1.83;;;19.80;99.90;;;;;;5043661;28;20037;-86
2021/08/18 12:36:13;;;;;;;5.72;2.85;;;19.70;99.90;;;;;;5047360;28;20371;-81
2021/08/18 12:38:52;;;;;;;4.20;2.70;;;19.60;99.90;;;;;;5042538;28;20167;-82
2021/08/18 12:41:23;;;;;;;2.70;1.80;;;19.50;99.90;;;;;;5041175;28;20037;-82
2021/08/18 12:44:01;;;;;;;3.45;2.00;;;19.50;99.90;;;;;;5040906;28;20041;-82
2021/08/18 12:46:35;;;;;;;4.15;2.58;;;19.50;99.90;;;;;;5043271;28;20128;-84
2021/08/18 12:49:29;;;;;;;6.05;3.50;;;19.70;99.90;;;;;;5042511;28;20040;-83
2021/08/18 12:51:58;;;;;;;3.78;2.80;;;19.90;99.90;;;;;;5024703;28;20056;-82
2021/08/18 12:54:24;;;;;;;4.88;2.72;;;19.90;99.90;;;;;;5024908;28;20047;-85
2021/08/18 12:56:51;;;;;;;5.10;2.78;;;20.00;99.90;;;;;;5039011;28;20052;-83
2021/08/18 12:59:17;;;;;;;6.15;3.45;;;20.00;99.90;;;;;;5041464;28;20045;-78
2021/08/18 13:01:43;;;;;;;4.97;3.45;;;20.00;99.90;;;;;;5043805;28;20075;-84